Time,TemperatureF,DewpointF,PressureIn,WindDirection,WindDirectionDegrees,WindSpeedMPH,WindSpeedGustMPH,Humidity,HourlyPrecipIn,Conditions,Clouds,dailyrainin,SoftwareType,DateUTC
2013-05-15 00:02:00,42.3,35.0,29.93,NNW,340,0.0,0.0,75,0.00,,---,0.01,VWS V14.01,2013-05-15 06:02:00,
2013-05-15 00:07:00,42.1,34.8,29.94,NNW,340,0.0,0.0,75,0.00,,---,0.00,VWS V14.01,2013-05-15 06:07:00,
2013-05-15 00:12:00,41.7,34.7,29.94,NNW,340,0.0,0.0,76,0.00,,---,0.00,VWS V14.01,2013-05-15 06:12:00,
2013-05-15 00:17:00,41.4,34.7,29.94,NNW,340,4.0,4.0,77,0.00,,---,0.00,VWS V14.01,2013-05-15 06:17:00,
2013-05-15 00:22:00,41.1,34.5,29.94,NNW,340,4.0,5.0,77,0.00,,---,0.00,VWS V14.01,2013-05-15 06:22:00,
2013-05-15 00:27:00,40.9,34.6,29.94,NNW,340,0.0,0.0,78,0.00,,---,0.00,VWS V14.01,2013-05-15 06:27:00,
2013-05-15 00:32:00,40.8,34.5,29.94,NNW,340,0.0,0.0,78,0.00,,---,0.00,VWS V14.01,2013-05-15 06:32:00,
2013-05-15 00:37:00,40.5,34.2,29.93,NNW,340,2.0,2.0,78,0.00,,---,0.00,VWS V14.01,2013-05-15 06:37:00,
2013-05-15 00:42:00,40.1,34.1,29.93,NNW,340,3.0,3.0,79,0.00,,---,0.00,VWS V14.01,2013-05-15 06:42:00,
2013-05-15 00:47:00,39.7,33.7,29.93,NNW,340,2.0,2.0,79,0.00,,---,0.00,VWS V14.01,2013-05-15 06:47:00,
2013-05-15 00:52:00,39.5,33.8,29.93,NNW,340,0.0,0.0,80,0.00,,---,0.00,VWS V14.01,2013-05-15 06:52:00,
2013-05-15 00:57:00,39.5,33.8,29.93,NNW,340,0.0,0.0,80,0.00,,---,0.00,VWS V14.01,2013-05-15 06:57:00,
2013-05-15 01:02:00,39.3,34.0,29.93,NNW,340,2.0,2.0,81,0.00,,---,0.00,VWS V14.01,2013-05-15 07:02:00,
2013-05-15 01:07:00,39.1,33.8,29.93,NNW,340,5.0,5.0,81,0.00,,---,0.00,VWS V14.01,2013-05-15 07:07:00,
2013-05-15 01:12:00,39.2,34.2,29.93,NNW,340,4.0,6.0,82,0.00,,---,0.00,VWS V14.01,2013-05-15 07:12:00,
2013-05-15 01:17:00,39.3,34.3,29.93,NNW,340,0.0,2.0,82,0.00,,---,0.00,VWS V14.01,2013-05-15 07:17:00,
2013-05-15 01:22:00,39.4,34.1,29.93,NNW,340,0.0,0.0,81,0.00,,---,0.00,VWS V14.01,2013-05-15 07:22:00,
2013-05-15 01:27:00,39.4,34.1,29.93,NNW,340,0.0,0.0,81,0.00,,---,0.00,VWS V14.01,2013-05-15 07:27:00,
2013-05-15 01:32:00,39.2,33.6,29.92,NNW,340,2.0,3.0,80,0.00,,---,0.00,VWS V14.01,2013-05-15 07:32:00,
2013-05-15 01:37:00,38.7,33.1,29.92,NNW,340,2.0,3.0,80,0.00,,---,0.00,VWS V14.01,2013-05-15 07:37:00,
2013-05-15 01:42:00,38.2,33.2,29.92,NNW,340,3.0,3.0,82,0.00,,---,0.00,VWS V14.01,2013-05-15 07:42:00,
2013-05-15 01:47:00,37.9,33.2,29.92,NNW,340,0.0,0.0,83,0.00,,---,0.00,VWS V14.01,2013-05-15 07:47:00,
2013-05-15 01:52:00,38.0,33.3,29.92,NNW,340,4.0,4.0,83,0.00,,---,0.00,VWS V14.01,2013-05-15 07:52:00,
2013-05-15 01:57:00,38.2,33.2,29.92,NNW,340,6.0,7.0,82,0.00,,---,0.00,VWS V14.01,2013-05-15 07:57:00,
2013-05-15 02:02:00,37.9,33.2,29.92,NNW,340,4.0,4.0,83,0.00,,---,0.00,VWS V14.01,2013-05-15 08:02:00,
2013-05-15 02:07:00,37.9,33.2,29.92,NNW,340,4.0,4.0,83,0.00,,---,0.00,VWS V14.01,2013-05-15 08:07:00,
2013-05-15 02:12:00,37.7,33.0,29.92,NNW,340,0.0,0.0,83,0.00,,---,0.00,VWS V14.01,2013-05-15 08:12:00,
2013-05-15 02:17:00,37.5,32.8,29.92,NNW,340,0.0,1.0,83,0.00,,---,0.00,VWS V14.01,2013-05-15 08:17:00,
2013-05-15 02:22:00,37.2,32.8,29.92,NNW,340,2.0,3.0,84,0.00,,---,0.00,VWS V14.01,2013-05-15 08:22:00,
2013-05-15 02:27:00,36.9,32.5,29.92,NNW,340,4.0,5.0,84,0.00,,---,0.00,VWS V14.01,2013-05-15 08:27:00,
2013-05-15 02:32:00,36.6,32.2,29.92,NNW,340,2.0,3.0,84,0.00,,---,0.00,VWS V14.01,2013-05-15 08:32:00,
2013-05-15 02:37:00,36.6,32.5,29.92,NNW,340,0.0,0.0,85,0.00,,---,0.00,VWS V14.01,2013-05-15 08:37:00,
2013-05-15 02:42:00,36.6,32.5,29.91,NNW,340,5.0,5.0,85,0.00,,---,0.00,VWS V14.01,2013-05-15 08:42:00,
2013-05-15 02:47:00,36.0,31.6,29.91,NNW,340,6.0,7.0,84,0.00,,---,0.00,VWS V14.01,2013-05-15 08:47:00,
2013-05-15 02:52:00,35.8,32.0,29.91,NNW,340,7.0,7.0,86,0.00,,---,0.00,VWS V14.01,2013-05-15 08:52:00,
2013-05-15 02:57:00,35.8,32.3,29.91,NNW,340,2.0,2.0,87,0.00,,---,0.00,VWS V14.01,2013-05-15 08:57:00,
2013-05-15 03:03:00,35.8,32.3,29.91,NNW,340,3.0,4.0,87,0.00,,---,0.00,VWS V14.01,2013-05-15 09:03:00,
2013-05-15 03:08:00,35.9,32.4,29.91,NNW,340,2.0,3.0,87,0.00,,---,0.00,VWS V14.01,2013-05-15 09:08:00,
2013-05-15 03:13:00,35.9,32.1,29.91,NNW,340,3.0,4.0,86,0.00,,---,0.00,VWS V14.01,2013-05-15 09:13:00,
2013-05-15 03:18:00,35.8,32.0,29.91,NNW,340,0.0,0.0,86,0.00,,---,0.00,VWS V14.01,2013-05-15 09:18:00,
2013-05-15 03:23:00,35.6,31.8,29.91,NNW,340,3.0,3.0,86,0.00,,---,0.00,VWS V14.01,2013-05-15 09:23:00,
2013-05-15 03:28:00,35.4,31.9,29.91,NNW,340,3.0,3.0,87,0.00,,---,0.00,VWS V14.01,2013-05-15 09:28:00,
2013-05-15 03:33:00,35.2,31.4,29.91,NNW,340,0.0,0.0,86,0.00,,---,0.00,VWS V14.01,2013-05-15 09:33:00,
2013-05-15 03:38:00,35.2,31.7,29.91,NNW,340,3.0,4.0,87,0.00,,---,0.00,VWS V14.01,2013-05-15 09:38:00,
2013-05-15 03:43:00,35.2,31.7,29.91,NNW,340,2.0,4.0,87,0.00,,---,0.00,VWS V14.01,2013-05-15 09:43:00,
2013-05-15 03:48:00,35.1,31.6,29.91,NNW,340,0.0,0.0,87,0.00,,---,0.00,VWS V14.01,2013-05-15 09:48:00,
2013-05-15 03:53:00,35.0,31.5,29.91,NNW,340,0.0,0.0,87,0.00,,---,0.00,VWS V14.01,2013-05-15 09:53:00,
2013-05-15 03:58:00,34.9,31.4,29.91,NNW,340,0.0,0.0,87,0.00,,---,0.00,VWS V14.01,2013-05-15 09:58:00,
2013-05-15 04:03:00,34.8,31.3,29.91,NNW,340,0.0,0.0,87,0.00,,---,0.00,VWS V14.01,2013-05-15 10:03:00,
2013-05-15 04:08:00,34.6,31.1,29.91,NNW,340,5.0,5.0,87,0.00,,---,0.00,VWS V14.01,2013-05-15 10:08:00,
2013-05-15 04:13:00,34.8,31.6,29.91,NNW,340,1.0,4.0,88,0.00,,---,0.00,VWS V14.01,2013-05-15 10:13:00,
2013-05-15 04:18:00,34.7,31.5,29.91,NNW,340,2.0,3.0,88,0.00,,---,0.00,VWS V14.01,2013-05-15 10:18:00,
2013-05-15 04:23:00,34.4,30.9,29.91,NNW,340,0.0,0.0,87,0.00,,---,0.00,VWS V14.01,2013-05-15 10:23:00,
2013-05-15 04:28:00,34.2,30.7,29.91,NNW,340,0.0,0.0,87,0.00,,---,0.00,VWS V14.01,2013-05-15 10:28:00,
2013-05-15 04:33:00,34.1,30.6,29.91,NNW,340,0.0,0.0,87,0.00,,---,0.00,VWS V14.01,2013-05-15 10:33:00,
2013-05-15 04:38:00,33.9,30.7,29.91,NNW,340,0.0,0.0,88,0.00,,---,0.00,VWS V14.01,2013-05-15 10:38:00,
2013-05-15 04:43:00,33.9,31.0,29.91,NNW,340,2.0,3.0,89,0.00,,---,0.00,VWS V14.01,2013-05-15 10:43:00,
2013-05-15 04:48:00,34.1,31.2,29.91,NNW,340,7.0,7.0,89,0.00,,---,0.00,VWS V14.01,2013-05-15 10:48:00,
2013-05-15 04:53:00,34.5,31.9,29.91,NNW,340,2.0,3.0,90,0.00,,---,0.00,VWS V14.01,2013-05-15 10:53:00,
2013-05-15 04:58:00,34.6,31.4,29.91,NNW,340,0.0,0.0,88,0.00,,---,0.00,VWS V14.01,2013-05-15 10:58:00,
2013-05-15 05:03:00,34.5,31.3,29.91,NNW,340,0.0,0.0,88,0.00,,---,0.00,VWS V14.01,2013-05-15 11:03:00,
2013-05-15 05:08:00,34.3,30.8,29.91,NNW,340,0.0,0.0,87,0.00,,---,0.00,VWS V14.01,2013-05-15 11:08:00,
2013-05-15 05:14:00,34.0,30.8,29.91,NNW,340,0.0,0.0,88,0.00,,---,0.00,VWS V14.01,2013-05-15 11:14:00,
2013-05-15 05:19:00,33.5,30.3,29.91,NNW,340,2.0,3.0,88,0.00,,---,0.00,VWS V14.01,2013-05-15 11:19:00,
2013-05-15 05:24:00,33.2,30.3,29.91,NNW,340,4.0,4.0,89,0.00,,---,0.00,VWS V14.01,2013-05-15 11:24:00,
2013-05-15 05:30:00,33.0,30.1,29.91,NNW,340,0.0,0.0,89,0.00,,---,0.00,VWS V14.01,2013-05-15 11:30:00,
2013-05-15 05:35:00,32.9,30.3,29.90,NNW,340,1.0,2.0,90,0.00,,---,0.00,VWS V14.01,2013-05-15 11:35:00,
2013-05-15 05:40:00,33.3,31.0,29.91,NNW,340,2.0,3.0,91,0.00,,---,0.00,VWS V14.01,2013-05-15 11:40:00,
2013-05-15 05:45:00,33.5,31.2,29.91,NNW,340,0.0,0.0,91,0.00,,---,0.00,VWS V14.01,2013-05-15 11:45:00,
2013-05-15 05:50:00,33.6,31.3,29.91,NNW,340,0.0,0.0,91,0.00,,---,0.00,VWS V14.01,2013-05-15 11:50:00,
2013-05-15 05:56:00,33.8,31.5,29.91,NNW,340,0.0,0.0,91,0.00,,---,0.00,VWS V14.01,2013-05-15 11:56:00,
2013-05-15 06:01:00,33.9,31.6,29.91,NNW,340,2.0,2.0,91,0.00,,---,0.00,VWS V14.01,2013-05-15 12:01:00,
2013-05-15 06:06:00,33.9,31.3,29.90,NNW,340,3.0,3.0,90,0.00,,---,0.00,VWS V14.01,2013-05-15 12:06:00,
2013-05-15 06:11:00,33.5,30.9,29.91,NNW,340,0.0,0.0,90,0.00,,---,0.00,VWS V14.01,2013-05-15 12:11:00,
2013-05-15 06:16:00,33.5,30.9,29.91,NNW,340,2.0,2.0,90,0.00,,---,0.00,VWS V14.01,2013-05-15 12:16:00,
2013-05-15 06:21:00,33.4,30.8,29.91,NNW,340,0.0,0.0,90,0.00,,---,0.00,VWS V14.01,2013-05-15 12:21:00,
2013-05-15 06:26:00,33.2,30.6,29.91,NNW,340,1.0,1.0,90,0.00,,---,0.00,VWS V14.01,2013-05-15 12:26:00,
2013-05-15 06:31:00,33.1,30.8,29.91,NNW,340,2.0,3.0,91,0.00,,---,0.00,VWS V14.01,2013-05-15 12:31:00,
2013-05-15 06:37:00,33.0,30.7,29.91,NNW,340,4.0,5.0,91,0.00,,---,0.00,VWS V14.01,2013-05-15 12:37:00,
2013-05-15 06:42:00,33.3,31.2,29.91,NNW,340,5.0,5.0,92,0.00,,---,0.00,VWS V14.01,2013-05-15 12:42:00,
2013-05-15 06:47:00,33.9,32.1,29.91,NNW,340,5.0,5.0,93,0.00,,---,0.00,VWS V14.01,2013-05-15 12:47:00,
2013-05-15 06:52:00,34.3,32.2,29.91,NNW,340,2.0,3.0,92,0.00,,---,0.00,VWS V14.01,2013-05-15 12:52:00,
2013-05-15 06:57:00,34.1,31.8,29.91,NNW,340,5.0,6.0,91,0.00,,---,0.00,VWS V14.01,2013-05-15 12:57:00,
2013-05-15 07:02:00,33.9,31.6,29.91,NNW,340,1.0,2.0,91,0.00,,---,0.00,VWS V14.01,2013-05-15 13:02:00,
2013-05-15 07:07:00,33.8,31.5,29.91,NNW,340,0.0,0.0,91,0.00,,---,0.00,VWS V14.01,2013-05-15 13:07:00,
2013-05-15 07:12:00,33.7,31.4,29.91,NNW,340,0.0,0.0,91,0.00,,---,0.00,VWS V14.01,2013-05-15 13:12:00,
2013-05-15 07:17:00,33.7,31.4,29.91,NNW,340,0.0,0.0,91,0.00,,---,0.00,VWS V14.01,2013-05-15 13:17:00,
2013-05-15 07:22:00,33.7,31.6,29.91,NNW,340,0.0,0.0,92,0.00,,---,0.00,VWS V14.01,2013-05-15 13:22:00,
2013-05-15 07:27:00,33.8,31.7,29.91,NNW,340,0.0,0.0,92,0.00,,---,0.00,VWS V14.01,2013-05-15 13:27:00,
2013-05-15 07:32:00,33.9,31.8,29.91,NNW,340,0.0,0.0,92,0.00,,---,0.00,VWS V14.01,2013-05-15 13:32:00,
2013-05-15 07:37:00,34.1,32.0,29.91,NNW,340,0.0,0.0,92,0.00,,---,0.00,VWS V14.01,2013-05-15 13:37:00,
2013-05-15 07:43:00,34.2,32.1,29.91,NNW,340,0.0,0.0,92,0.00,,---,0.00,VWS V14.01,2013-05-15 13:43:00,
2013-05-15 07:48:00,34.3,32.2,29.91,NNW,340,0.0,2.0,92,0.00,,---,0.00,VWS V14.01,2013-05-15 13:48:00,
2013-05-15 07:53:00,34.4,32.3,29.91,NNW,340,0.0,0.0,92,0.00,,---,0.00,VWS V14.01,2013-05-15 13:53:00,
2013-05-15 07:58:00,34.7,32.6,29.91,NNW,340,0.0,0.0,92,0.00,,---,0.00,VWS V14.01,2013-05-15 13:58:00,
2013-05-15 08:03:00,35.2,33.1,29.91,NNW,340,0.0,1.0,92,0.00,,---,0.00,VWS V14.01,2013-05-15 14:03:00,
2013-05-15 08:08:00,35.9,33.8,29.91,NNW,340,0.0,2.0,92,0.00,,---,0.00,VWS V14.01,2013-05-15 14:08:00,
2013-05-15 08:13:00,36.7,34.9,29.91,NNW,340,0.0,0.0,93,0.00,,---,0.00,VWS V14.01,2013-05-15 14:13:00,
2013-05-15 08:18:00,37.4,35.3,29.91,NNW,340,0.0,0.0,92,0.00,,---,0.00,VWS V14.01,2013-05-15 14:18:00,
2013-05-15 08:23:00,37.7,35.3,29.91,NNW,340,0.0,0.0,91,0.00,,---,0.00,VWS V14.01,2013-05-15 14:23:00,
2013-05-15 08:28:00,38.2,35.8,29.90,NNW,340,0.0,0.0,91,0.00,,---,0.00,VWS V14.01,2013-05-15 14:28:00,
2013-05-15 08:34:00,38.8,36.1,29.91,NNW,340,0.0,0.0,90,0.00,,---,0.00,VWS V14.01,2013-05-15 14:34:00,
2013-05-15 08:39:00,39.6,36.9,29.90,NNW,340,0.0,0.0,90,0.00,,---,0.00,VWS V14.01,2013-05-15 14:39:00,
2013-05-15 08:44:00,41.6,38.9,29.90,NNW,340,0.0,0.0,90,0.00,,---,0.00,VWS V14.01,2013-05-15 14:44:00,
2013-05-15 08:49:00,43.2,38.1,29.90,NNW,340,0.0,0.0,82,0.00,,---,0.00,VWS V14.01,2013-05-15 14:49:00,
2013-05-15 08:54:00,44.2,38.4,29.90,NNW,340,0.0,0.0,80,0.00,,---,0.00,VWS V14.01,2013-05-15 14:54:00,
2013-05-15 09:00:00,45.2,37.4,29.90,NNW,340,0.0,0.0,74,0.00,,---,0.00,VWS V14.01,2013-05-15 15:00:00,
2013-05-15 09:05:00,46.3,37.4,29.90,NNW,340,0.0,0.0,71,0.00,,---,0.00,VWS V14.01,2013-05-15 15:05:00,
2013-05-15 09:10:00,46.7,38.5,29.90,NNW,340,0.0,0.0,73,0.00,,---,0.00,VWS V14.01,2013-05-15 15:10:00,
2013-05-15 09:15:00,46.6,37.3,29.90,NNW,340,0.0,0.0,70,0.00,,---,0.00,VWS V14.01,2013-05-15 15:15:00,
2013-05-15 09:20:00,46.8,37.5,29.90,NNW,340,2.0,4.0,70,0.00,,---,0.00,VWS V14.01,2013-05-15 15:20:00,
2013-05-15 09:25:00,46.8,37.2,29.90,NNW,340,0.0,3.0,69,0.00,,---,0.00,VWS V14.01,2013-05-15 15:25:00,
2013-05-15 09:30:00,46.9,36.9,29.90,NNW,340,0.0,3.0,68,0.00,,---,0.00,VWS V14.01,2013-05-15 15:30:00,
2013-05-15 09:35:00,47.3,37.3,29.89,NNW,340,2.0,2.0,68,0.00,,---,0.00,VWS V14.01,2013-05-15 15:35:00,
2013-05-15 09:40:00,47.3,36.9,29.89,NNW,340,0.0,0.0,67,0.00,,---,0.00,VWS V14.01,2013-05-15 15:40:00,
2013-05-15 09:45:00,47.9,37.9,29.89,NNW,340,0.0,0.0,68,0.00,,---,0.00,VWS V14.01,2013-05-15 15:45:00,
2013-05-15 09:50:00,48.4,37.6,29.89,NNW,340,0.0,0.0,66,0.00,,---,0.00,VWS V14.01,2013-05-15 15:50:00,
2013-05-15 09:56:00,49.1,39.4,29.89,NNW,340,0.0,0.0,69,0.00,,---,0.00,VWS V14.01,2013-05-15 15:56:00,
2013-05-15 10:01:00,49.4,38.1,29.89,NNW,340,0.0,0.0,65,0.00,,---,0.00,VWS V14.01,2013-05-15 16:01:00,
2013-05-15 10:06:00,49.6,37.9,29.89,NNW,340,1.0,1.0,64,0.00,,---,0.00,VWS V14.01,2013-05-15 16:06:00,
2013-05-15 10:11:00,49.7,37.2,29.88,NNW,340,0.0,0.0,62,0.00,,---,0.00,VWS V14.01,2013-05-15 16:11:00,
2013-05-15 10:17:00,50.1,38.0,29.89,NNW,340,3.0,3.0,63,0.00,,---,0.00,VWS V14.01,2013-05-15 16:17:00,
2013-05-15 10:22:00,50.4,38.3,29.89,NNW,340,3.0,4.0,63,0.00,,---,0.00,VWS V14.01,2013-05-15 16:22:00,
2013-05-15 10:27:00,50.5,38.0,29.89,NNW,340,4.0,5.0,62,0.00,,---,0.00,VWS V14.01,2013-05-15 16:27:00,
2013-05-15 10:32:00,50.5,38.4,29.88,NNW,340,6.0,6.0,63,0.00,,---,0.00,VWS V14.01,2013-05-15 16:32:00,
2013-05-15 10:37:00,50.4,39.1,29.88,SE,129,7.0,7.0,65,0.00,,---,0.00,VWS V14.01,2013-05-15 16:37:00,
2013-05-15 10:42:00,50.1,38.8,29.89,SE,133,3.0,7.0,65,0.00,,---,0.00,VWS V14.01,2013-05-15 16:42:00,
2013-05-15 10:47:00,49.9,38.6,29.88,ESE,105,3.0,5.0,65,0.00,,---,0.00,VWS V14.01,2013-05-15 16:47:00,
2013-05-15 10:52:00,50.0,39.5,29.89,SSE,154,3.0,7.0,67,0.00,,---,0.00,VWS V14.01,2013-05-15 16:52:00,
2013-05-15 10:57:00,50.0,39.1,29.88,SE,139,5.0,5.0,66,0.00,,---,0.00,VWS V14.01,2013-05-15 16:57:00,
2013-05-15 11:02:00,51.0,39.7,29.88,SE,140,4.0,5.0,65,0.00,,---,0.00,VWS V14.01,2013-05-15 17:02:00,
2013-05-15 11:07:00,51.0,38.5,29.88,SE,140,0.0,0.0,62,0.00,,---,0.00,VWS V14.01,2013-05-15 17:07:00,
2013-05-15 11:12:00,52.5,40.3,29.88,SE,140,0.0,0.0,63,0.00,,---,0.00,VWS V14.01,2013-05-15 17:12:00,
2013-05-15 11:17:00,54.0,40.0,29.88,SE,140,0.0,0.0,59,0.00,,---,0.00,VWS V14.01,2013-05-15 17:17:00,
2013-05-15 11:22:00,55.8,39.9,29.87,WSW,250,3.0,4.0,55,0.00,,---,0.00,VWS V14.01,2013-05-15 17:22:00,
2013-05-15 11:27:00,55.9,39.5,29.87,WSW,247,3.0,3.0,54,0.00,,---,0.00,VWS V14.01,2013-05-15 17:27:00,
2013-05-15 11:32:00,56.8,39.9,29.87,SSW,205,2.0,3.0,53,0.00,,---,0.00,VWS V14.01,2013-05-15 17:32:00,
2013-05-15 11:37:00,58.3,41.3,29.86,SSW,205,1.0,1.0,53,0.00,,---,0.00,VWS V14.01,2013-05-15 17:37:00,
2013-05-15 11:43:00,58.7,38.5,29.86,SSW,205,3.0,3.0,47,0.00,,---,0.00,VWS V14.01,2013-05-15 17:43:00,
2013-05-15 11:48:00,59.6,38.2,29.86,SSW,205,2.0,3.0,45,0.00,,---,0.00,VWS V14.01,2013-05-15 17:48:00,
2013-05-15 11:53:00,59.6,35.9,29.86,NE,42,2.0,8.0,41,0.00,,---,0.00,VWS V14.01,2013-05-15 17:53:00,
2013-05-15 11:58:00,59.8,36.7,29.86,West,280,2.0,5.0,42,0.00,,---,0.00,VWS V14.01,2013-05-15 17:58:00,
2013-05-15 12:04:00,60.2,34.5,29.86,WSW,253,3.0,10.0,38,0.00,,---,0.00,VWS V14.01,2013-05-15 18:04:00,
2013-05-15 12:09:00,61.9,32.5,29.86,West,260,0.0,5.0,33,0.00,,---,0.00,VWS V14.01,2013-05-15 18:09:00,
2013-05-15 12:14:00,63.1,33.6,29.85,WNW,302,3.0,3.0,33,0.00,,---,0.00,VWS V14.01,2013-05-15 18:14:00,
2013-05-15 12:19:00,62.3,33.6,29.85,North,5,7.0,7.0,34,0.00,,---,0.00,VWS V14.01,2013-05-15 18:19:00,
2013-05-15 12:24:00,63.2,34.4,29.84,NNE,20,8.0,8.0,34,0.00,,---,0.00,VWS V14.01,2013-05-15 18:24:00,
2013-05-15 12:29:00,64.2,33.0,29.84,North,5,1.0,1.0,31,0.00,,---,0.00,VWS V14.01,2013-05-15 18:29:00,
2013-05-15 12:34:00,63.8,34.9,29.84,South,185,6.0,8.0,34,0.00,,---,0.00,VWS V14.01,2013-05-15 18:34:00,
2013-05-15 12:39:00,63.9,32.7,29.84,SSW,204,6.0,7.0,31,0.00,,---,0.00,VWS V14.01,2013-05-15 18:39:00,
2013-05-15 12:45:00,64.0,32.0,29.84,South,182,8.0,8.0,30,0.00,,---,0.00,VWS V14.01,2013-05-15 18:45:00,
2013-05-15 12:50:00,63.8,38.4,29.84,SSE,167,7.0,10.0,39,0.00,,---,0.00,VWS V14.01,2013-05-15 18:50:00,
2013-05-15 12:55:00,64.3,35.4,29.83,East,84,10.0,13.0,34,0.00,,---,0.00,VWS V14.01,2013-05-15 18:55:00,
2013-05-15 13:00:00,64.2,36.0,29.83,SE,133,14.0,18.0,35,0.00,,---,0.00,VWS V14.01,2013-05-15 19:00:00,
2013-05-15 13:05:00,63.7,36.3,29.84,SSE,147,12.0,14.0,36,0.00,,---,0.00,VWS V14.01,2013-05-15 19:05:00,
2013-05-15 13:10:00,62.4,37.1,29.83,SE,137,8.0,11.0,39,0.00,,---,0.00,VWS V14.01,2013-05-15 19:10:00,
2013-05-15 13:15:00,62.1,36.9,29.83,SE,142,11.0,14.0,39,0.00,,---,0.00,VWS V14.01,2013-05-15 19:15:00,
2013-05-15 13:20:00,61.6,35.8,29.83,SSE,147,9.0,13.0,38,0.00,,---,0.00,VWS V14.01,2013-05-15 19:20:00,
2013-05-15 13:25:00,61.4,37.5,29.83,SSE,163,9.0,9.0,41,0.00,,---,0.00,VWS V14.01,2013-05-15 19:25:00,
2013-05-15 13:30:00,61.4,36.2,29.83,SSE,165,10.0,12.0,39,0.00,,---,0.00,VWS V14.01,2013-05-15 19:30:00,
2013-05-15 13:35:00,61.2,36.7,29.83,SE,140,9.0,10.0,40,0.00,,---,0.00,VWS V14.01,2013-05-15 19:35:00,
2013-05-15 13:40:00,60.8,36.3,29.83,SSE,159,10.0,14.0,40,0.00,,---,0.00,VWS V14.01,2013-05-15 19:40:00,
2013-05-15 13:45:00,60.6,36.8,29.83,SE,134,9.0,12.0,41,0.00,,---,0.00,VWS V14.01,2013-05-15 19:45:00,
2013-05-15 13:51:00,61.9,37.3,29.83,SE,134,14.0,14.0,40,0.00,,---,0.00,VWS V14.01,2013-05-15 19:51:00,
2013-05-15 13:56:00,62.2,37.6,29.83,SE,140,8.0,12.0,40,0.00,,---,0.00,VWS V14.01,2013-05-15 19:56:00,
2013-05-15 14:01:00,61.3,34.1,29.83,SE,136,6.0,8.0,36,0.00,,---,0.00,VWS V14.01,2013-05-15 20:01:00,
2013-05-15 14:06:00,60.5,33.4,29.83,ENE,77,8.0,8.0,36,0.00,,---,0.00,VWS V14.01,2013-05-15 20:06:00,
2013-05-15 14:11:00,59.9,34.2,29.83,ENE,59,2.0,2.0,38,0.00,,---,0.00,VWS V14.01,2013-05-15 20:11:00,
2013-05-15 14:16:00,59.8,34.8,29.83,SSE,167,8.0,9.0,39,0.00,,---,0.00,VWS V14.01,2013-05-15 20:16:00,
2013-05-15 14:21:00,59.5,35.2,29.83,South,178,6.0,7.0,40,0.00,,---,0.00,VWS V14.01,2013-05-15 20:21:00,
2013-05-15 14:26:00,59.3,35.0,29.83,South,171,8.0,11.0,40,0.00,,---,0.00,VWS V14.01,2013-05-15 20:26:00,
2013-05-15 14:31:00,59.1,34.8,29.83,South,188,10.0,11.0,40,0.00,,---,0.00,VWS V14.01,2013-05-15 20:31:00,
2013-05-15 14:36:00,59.0,35.3,29.83,SW,224,14.0,14.0,41,0.00,,---,0.00,VWS V14.01,2013-05-15 20:36:00,
2013-05-15 14:41:00,58.9,34.0,29.83,SW,215,0.0,0.0,39,0.00,,---,0.00,VWS V14.01,2013-05-15 20:41:00,
2013-05-15 14:47:00,59.5,34.5,29.83,SW,215,0.0,1.0,39,0.00,,---,0.00,VWS V14.01,2013-05-15 20:47:00,
2013-05-15 14:52:00,60.5,35.4,29.83,East,82,5.0,8.0,39,0.00,,---,0.00,VWS V14.01,2013-05-15 20:52:00,
2013-05-15 14:57:00,60.9,35.8,29.82,East,89,6.0,6.0,39,0.00,,---,0.00,VWS V14.01,2013-05-15 20:57:00,
2013-05-15 15:02:00,61.0,35.9,29.82,ESE,105,2.0,2.0,39,0.00,,---,0.00,VWS V14.01,2013-05-15 21:02:00,
2013-05-15 15:07:00,62.2,34.9,29.82,East,101,7.0,7.0,36,0.00,,---,0.00,VWS V14.01,2013-05-15 21:07:00,
2013-05-15 15:13:00,62.4,33.7,29.81,SE,131,1.0,1.0,34,0.00,,---,0.00,VWS V14.01,2013-05-15 21:13:00,
2013-05-15 15:18:00,63.4,37.4,29.82,East,96,7.0,8.0,38,0.00,,---,0.00,VWS V14.01,2013-05-15 21:18:00,
2013-05-15 15:23:00,63.6,36.9,29.82,ENE,67,4.0,13.0,37,0.00,,---,0.00,VWS V14.01,2013-05-15 21:23:00,
2013-05-15 15:28:00,62.8,35.5,29.81,NNW,344,3.0,4.0,36,0.00,,---,0.00,VWS V14.01,2013-05-15 21:28:00,
2013-05-15 15:33:00,62.3,36.4,29.80,ENE,65,0.0,2.0,38,0.00,,---,0.00,VWS V14.01,2013-05-15 21:33:00,
2013-05-15 15:38:00,62.6,36.7,29.80,SSW,198,2.0,4.0,38,0.00,,---,0.00,VWS V14.01,2013-05-15 21:38:00,
2013-05-15 15:43:00,62.5,36.6,29.80,SE,142,9.0,9.0,38,0.00,,---,0.00,VWS V14.01,2013-05-15 21:43:00,
2013-05-15 15:49:00,62.0,36.8,29.80,NE,51,10.0,15.0,39,0.00,,---,0.00,VWS V14.01,2013-05-15 21:49:00,
2013-05-15 15:54:00,61.4,35.6,29.79,NE,55,9.0,9.0,38,0.00,,---,0.00,VWS V14.01,2013-05-15 21:54:00,
2013-05-15 15:59:00,61.2,36.7,29.79,NE,52,8.0,8.0,40,0.00,,---,0.00,VWS V14.01,2013-05-15 21:59:00,
2013-05-15 16:04:00,60.6,36.8,29.79,NE,39,8.0,8.0,41,0.00,,---,0.00,VWS V14.01,2013-05-15 22:04:00,
2013-05-15 16:09:00,59.9,36.2,29.79,NNE,30,5.0,6.0,41,0.00,,---,0.00,VWS V14.01,2013-05-15 22:09:00,
2013-05-15 16:15:00,59.5,35.2,29.79,NE,45,1.0,5.0,40,0.00,,---,0.00,VWS V14.01,2013-05-15 22:15:00,
2013-05-15 16:20:00,59.4,35.1,29.79,SSE,148,6.0,6.0,40,0.00,,---,0.00,VWS V14.01,2013-05-15 22:20:00,
2013-05-15 16:25:00,59.3,36.8,29.79,SSE,148,6.0,7.0,43,0.00,,---,0.00,VWS V14.01,2013-05-15 22:25:00,
2013-05-15 16:30:00,59.1,37.2,29.79,SSE,161,8.0,8.0,44,0.00,,---,0.00,VWS V14.01,2013-05-15 22:30:00,
2013-05-15 16:35:00,58.8,37.0,29.79,South,177,11.0,11.0,44,0.00,,---,0.00,VWS V14.01,2013-05-15 22:35:00,
2013-05-15 16:40:00,58.3,35.3,29.80,South,178,3.0,3.0,42,0.00,,---,0.00,VWS V14.01,2013-05-15 22:40:00,
2013-05-15 16:45:00,58.0,36.8,29.80,South,184,18.0,18.0,45,0.00,,---,0.00,VWS V14.01,2013-05-15 22:45:00,
2013-05-15 16:50:00,56.9,39.0,29.81,South,190,12.0,12.0,51,0.00,,---,0.00,VWS V14.01,2013-05-15 22:50:00,
2013-05-15 16:56:00,55.4,39.5,29.82,SSW,205,1.0,3.0,55,0.00,,---,0.00,VWS V14.01,2013-05-15 22:56:00,
2013-05-15 17:01:00,53.9,40.3,29.83,West,262,9.0,9.0,60,0.00,,---,0.00,VWS V14.01,2013-05-15 23:01:00,
2013-05-15 17:06:00,52.6,39.1,29.83,West,262,1.0,5.0,60,0.00,,---,0.00,VWS V14.01,2013-05-15 23:06:00,
2013-05-15 17:11:00,52.2,39.6,29.82,East,99,5.0,5.0,62,0.00,,---,0.00,VWS V14.01,2013-05-15 23:11:00,
2013-05-15 17:16:00,52.0,38.1,29.82,North,355,5.0,5.0,59,0.00,,---,0.00,VWS V14.01,2013-05-15 23:16:00,
2013-05-15 17:21:00,51.9,40.9,29.82,ENE,73,3.0,4.0,66,0.00,,---,0.00,VWS V14.01,2013-05-15 23:21:00,
2013-05-15 17:26:00,51.4,40.4,29.83,East,94,5.0,5.0,66,0.01,,---,0.01,VWS V14.01,2013-05-15 23:26:00,
2013-05-15 17:31:00,51.0,39.3,29.84,East,99,11.0,13.0,64,0.01,,---,0.01,VWS V14.01,2013-05-15 23:31:00,
2013-05-15 17:36:00,50.9,40.7,29.85,SSE,158,6.0,10.0,68,0.01,,---,0.01,VWS V14.01,2013-05-15 23:36:00,
2013-05-15 17:42:00,50.5,40.7,29.85,South,173,5.0,8.0,69,0.01,,---,0.01,VWS V14.01,2013-05-15 23:42:00,
2013-05-15 17:47:00,50.1,41.8,29.85,South,186,6.0,6.0,73,0.01,,---,0.01,VWS V14.01,2013-05-15 23:47:00,
2013-05-15 17:52:00,49.4,41.8,29.85,SSW,198,1.0,3.0,75,0.01,,---,0.01,VWS V14.01,2013-05-15 23:52:00,
2013-05-15 17:57:00,49.0,41.8,29.85,SSW,198,0.0,1.0,76,0.01,,---,0.01,VWS V14.01,2013-05-15 23:57:00,
2013-05-15 18:02:00,48.7,41.1,29.85,SSW,198,2.0,2.0,75,0.02,,---,0.02,VWS V14.01,2013-05-16 00:02:00,
2013-05-15 18:07:00,48.9,42.0,29.86,SSW,198,2.0,2.0,77,0.02,,---,0.02,VWS V14.01,2013-05-16 00:07:00,
2013-05-15 18:12:00,49.0,42.5,29.86,SW,236,5.0,5.0,78,0.02,,---,0.02,VWS V14.01,2013-05-16 00:12:00,
2013-05-15 18:17:00,49.1,41.5,29.87,NNW,328,6.0,7.0,75,0.02,,---,0.02,VWS V14.01,2013-05-16 00:17:00,
2013-05-15 18:22:00,49.0,42.1,29.88,West,281,15.0,16.0,77,0.02,,---,0.02,VWS V14.01,2013-05-16 00:22:00,
2013-05-15 18:27:00,48.8,40.9,29.86,North,355,7.0,8.0,74,0.01,,---,0.02,VWS V14.01,2013-05-16 00:27:00,
2013-05-15 18:32:00,48.8,38.3,29.85,North,355,6.0,7.0,67,0.01,,---,0.02,VWS V14.01,2013-05-16 00:32:00,
2013-05-15 18:38:00,48.8,40.2,29.84,North,5,0.0,2.0,72,0.01,,---,0.02,VWS V14.01,2013-05-16 00:38:00,
2013-05-15 18:43:00,48.8,39.1,29.84,North,5,4.0,4.0,69,0.01,,---,0.02,VWS V14.01,2013-05-16 00:43:00,
2013-05-15 18:48:00,49.0,40.7,29.83,North,355,9.0,12.0,73,0.02,,---,0.03,VWS V14.01,2013-05-16 00:48:00,
2013-05-15 18:54:00,48.7,41.1,29.83,NNW,347,11.0,15.0,75,0.02,,---,0.03,VWS V14.01,2013-05-16 00:54:00,
2013-05-15 18:59:00,48.5,41.3,29.83,NNW,344,12.0,15.0,76,0.01,,---,0.03,VWS V14.01,2013-05-16 00:59:00,
2013-05-15 19:04:00,48.5,41.3,29.83,NNW,337,9.0,11.0,76,0.01,,---,0.03,VWS V14.01,2013-05-16 01:04:00,
2013-05-15 19:09:00,48.6,40.7,29.83,NNW,334,8.0,8.0,74,0.01,,---,0.03,VWS V14.01,2013-05-16 01:09:00,
2013-05-15 19:14:00,48.7,40.5,29.83,North,355,8.0,8.0,73,0.01,,---,0.03,VWS V14.01,2013-05-16 01:14:00,
2013-05-15 19:19:00,48.9,40.6,29.83,North,355,0.0,0.0,73,0.01,,---,0.03,VWS V14.01,2013-05-16 01:19:00,
2013-05-15 19:25:00,49.1,41.5,29.83,NNW,347,5.0,6.0,75,0.01,,---,0.03,VWS V14.01,2013-05-16 01:25:00,
2013-05-15 19:30:00,49.1,40.5,29.83,NNW,336,4.0,7.0,72,0.01,,---,0.03,VWS V14.01,2013-05-16 01:30:00,
2013-05-15 19:35:00,49.0,40.4,29.83,NNW,339,1.0,1.0,72,0.01,,---,0.03,VWS V14.01,2013-05-16 01:35:00,
2013-05-15 19:40:00,48.8,39.5,29.83,NNW,339,0.0,0.0,70,0.01,,---,0.03,VWS V14.01,2013-05-16 01:40:00,
2013-05-15 19:45:00,48.8,40.5,29.82,NNW,339,0.0,0.0,73,0.01,,---,0.03,VWS V14.01,2013-05-16 01:45:00,
2013-05-15 19:50:00,48.7,40.1,29.83,NNW,339,4.0,4.0,72,0.00,,---,0.03,VWS V14.01,2013-05-16 01:50:00,
2013-05-15 19:55:00,48.3,40.1,29.83,NNW,339,4.0,5.0,73,0.00,,---,0.03,VWS V14.01,2013-05-16 01:55:00,
2013-05-15 20:00:00,48.0,40.1,29.83,NNW,339,3.0,3.0,74,0.00,,---,0.03,VWS V14.01,2013-05-16 02:00:00,
2013-05-15 20:06:00,47.4,40.2,29.83,NNW,339,4.0,5.0,76,0.00,,---,0.03,VWS V14.01,2013-05-16 02:06:00,
2013-05-15 20:11:00,46.9,40.1,29.84,NNW,338,5.0,5.0,77,0.00,,---,0.03,VWS V14.01,2013-05-16 02:11:00,
2013-05-15 20:16:00,46.8,40.0,29.85,NNW,329,6.0,7.0,77,0.00,,---,0.03,VWS V14.01,2013-05-16 02:16:00,
2013-05-15 20:21:00,46.7,39.5,29.86,WNW,302,6.0,9.0,76,0.00,,---,0.03,VWS V14.01,2013-05-16 02:21:00,
2013-05-15 20:26:00,46.6,40.1,29.85,NE,36,8.0,10.0,78,0.00,,---,0.03,VWS V14.01,2013-05-16 02:26:00,
2013-05-15 20:31:00,46.3,39.8,29.85,NNE,31,5.0,6.0,78,0.01,,---,0.04,VWS V14.01,2013-05-16 02:31:00,
2013-05-15 20:36:00,46.1,39.6,29.85,NNE,31,0.0,0.0,78,0.01,,---,0.04,VWS V14.01,2013-05-16 02:36:00,
2013-05-15 20:41:00,45.9,39.4,29.86,NNW,348,6.0,7.0,78,0.01,,---,0.04,VWS V14.01,2013-05-16 02:41:00,
2013-05-15 20:47:00,45.1,39.6,29.85,NW,311,3.0,3.0,81,0.01,,---,0.04,VWS V14.01,2013-05-16 02:47:00,
2013-05-15 20:52:00,44.8,39.7,29.85,NW,311,3.0,3.0,82,0.01,,---,0.04,VWS V14.01,2013-05-16 02:52:00,
2013-05-15 20:57:00,44.6,39.8,29.85,NW,315,2.0,3.0,83,0.01,,---,0.04,VWS V14.01,2013-05-16 02:57:00,
2013-05-15 21:03:00,44.4,39.6,29.85,NW,315,3.0,3.0,83,0.01,,---,0.04,VWS V14.01,2013-05-16 03:03:00,
2013-05-15 21:08:00,44.2,39.4,29.86,NW,308,0.0,0.0,83,0.01,,---,0.04,VWS V14.01,2013-05-16 03:08:00,
2013-05-15 21:14:00,44.0,39.2,29.86,NW,308,0.0,0.0,83,0.01,,---,0.04,VWS V14.01,2013-05-16 03:14:00,
2013-05-15 21:19:00,43.6,39.1,29.86,NW,308,0.0,0.0,84,0.01,,---,0.04,VWS V14.01,2013-05-16 03:19:00,
2013-05-15 21:24:00,43.2,38.7,29.87,NW,308,2.0,4.0,84,0.01,,---,0.04,VWS V14.01,2013-05-16 03:24:00,
2013-05-15 21:29:00,42.7,38.2,29.87,NW,308,4.0,4.0,84,0.00,,---,0.04,VWS V14.01,2013-05-16 03:29:00,
2013-05-15 21:34:00,42.1,37.9,29.87,NW,319,7.0,7.0,85,0.00,,---,0.04,VWS V14.01,2013-05-16 03:34:00,
2013-05-15 21:40:00,41.2,37.9,29.87,NW,321,5.0,6.0,88,0.00,,---,0.04,VWS V14.01,2013-05-16 03:40:00,
2013-05-15 21:45:00,41.1,38.1,29.87,NW,321,6.0,6.0,89,0.00,,---,0.04,VWS V14.01,2013-05-16 03:45:00,
2013-05-15 21:50:00,41.2,38.2,29.88,NW,321,5.0,5.0,89,0.00,,---,0.04,VWS V14.01,2013-05-16 03:50:00,
2013-05-15 21:55:00,41.1,38.1,29.88,NW,321,3.0,3.0,89,0.00,,---,0.04,VWS V14.01,2013-05-16 03:55:00,
2013-05-15 22:00:00,41.1,38.1,29.88,NW,321,0.0,2.0,89,0.00,,---,0.04,VWS V14.01,2013-05-16 04:00:00,
2013-05-15 22:01:00,41.1,38.1,29.88,NW,321,0.0,0.0,89,0.00,,---,0.04,VWS V14.01,2013-05-16 04:01:00,
2013-05-15 22:06:00,41.1,38.1,29.88,NW,321,3.0,3.0,89,0.00,,---,0.04,VWS V14.01,2013-05-16 04:06:00,
2013-05-15 22:11:00,40.9,37.3,29.88,NW,321,1.0,1.0,87,0.00,,---,0.04,VWS V14.01,2013-05-16 04:11:00,
2013-05-15 22:16:00,40.7,37.4,29.89,NW,321,0.0,0.0,88,0.00,,---,0.04,VWS V14.01,2013-05-16 04:16:00,
2013-05-15 22:21:00,40.4,36.8,29.89,NW,321,1.0,2.0,87,0.00,,---,0.04,VWS V14.01,2013-05-16 04:21:00,
2013-05-15 22:26:00,40.0,36.7,29.89,NW,321,0.0,0.0,88,0.00,,---,0.04,VWS V14.01,2013-05-16 04:26:00,
2013-05-15 22:32:00,39.8,36.2,29.90,NW,321,0.0,0.0,87,0.00,,---,0.04,VWS V14.01,2013-05-16 04:32:00,
2013-05-15 22:37:00,39.5,36.2,29.89,NW,321,6.0,6.0,88,0.00,,---,0.04,VWS V14.01,2013-05-16 04:37:00,
2013-05-15 22:42:00,39.1,35.8,29.89,NW,323,7.0,9.0,88,0.00,,---,0.04,VWS V14.01,2013-05-16 04:42:00,
2013-05-15 22:47:00,39.0,36.0,29.89,NNW,329,3.0,6.0,89,0.00,,---,0.04,VWS V14.01,2013-05-16 04:47:00,
2013-05-15 22:52:00,39.0,36.0,29.89,NNW,329,1.0,2.0,89,0.00,,---,0.04,VWS V14.01,2013-05-16 04:52:00,
2013-05-15 22:57:00,38.9,35.9,29.89,NNW,329,0.0,0.0,89,0.00,,---,0.04,VWS V14.01,2013-05-16 04:57:00,
2013-05-15 23:02:00,38.8,35.6,29.89,NNW,329,2.0,2.0,88,0.00,,---,0.04,VWS V14.01,2013-05-16 05:02:00,
2013-05-15 23:07:00,38.6,35.6,29.89,NNW,329,5.0,5.0,89,0.00,,---,0.04,VWS V14.01,2013-05-16 05:07:00,
2013-05-15 23:12:00,38.5,35.5,29.89,NNW,329,7.0,7.0,89,0.00,,---,0.04,VWS V14.01,2013-05-16 05:12:00,
2013-05-15 23:17:00,38.3,35.1,29.89,NNW,329,5.0,5.0,88,0.00,,---,0.04,VWS V14.01,2013-05-16 05:17:00,
2013-05-15 23:22:00,37.9,34.7,29.90,NNW,329,3.0,3.0,88,0.00,,---,0.04,VWS V14.01,2013-05-16 05:22:00,
2013-05-15 23:27:00,37.6,34.4,29.90,NNW,329,2.0,2.0,88,0.00,,---,0.04,VWS V14.01,2013-05-16 05:27:00,
2013-05-15 23:32:00,37.3,34.4,29.90,NNW,329,2.0,4.0,89,0.00,,---,0.04,VWS V14.01,2013-05-16 05:32:00,
2013-05-15 23:37:00,37.4,35.0,29.89,NNW,329,2.0,2.0,91,0.00,,---,0.04,VWS V14.01,2013-05-16 05:37:00,
2013-05-15 23:42:00,37.3,34.9,29.89,NNW,329,0.0,0.0,91,0.00,,---,0.04,VWS V14.01,2013-05-16 05:42:00,
2013-05-15 23:47:00,37.3,34.9,29.89,NNW,329,0.0,0.0,91,0.00,,---,0.04,VWS V14.01,2013-05-16 05:47:00,
2013-05-15 23:52:00,37.3,34.9,29.89,NNW,329,5.0,6.0,91,0.00,,---,0.04,VWS V14.01,2013-05-16 05:52:00,
2013-05-15 23:57:00,37.3,34.6,29.90,NNW,329,0.0,0.0,90,0.00,,---,0.04,VWS V14.01,2013-05-16 05:57:00,